createdAt,value
2024-01-21T00:00:11.730Z,13.94
2024-01-21T00:02:39.667Z,13.67
2024-01-21T00:05:06.528Z,13.14
2024-01-21T00:07:33.162Z,13.57
2024-01-21T00:09:59.841Z,13.85
2024-01-21T00:12:26.520Z,13.99
2024-01-21T00:14:53.147Z,14.07
2024-01-21T00:17:19.856Z,14.03
2024-01-21T00:19:46.517Z,13.85
2024-01-21T00:22:13.553Z,13.91
2024-01-21T00:24:40.225Z,13.88
2024-01-21T00:27:06.981Z,13.80
2024-01-21T00:29:33.615Z,13.92
2024-01-21T00:32:00.352Z,13.18
2024-01-21T00:34:29.654Z,13.39
2024-01-21T00:36:56.538Z,14.05
2024-01-21T00:39:23.223Z,13.18
2024-01-21T00:41:58.023Z,13.81
2024-01-21T00:44:31.464Z,13.48
2024-01-21T00:46:58.202Z,13.47
2024-01-21T00:49:24.910Z,13.21
2024-01-21T00:51:51.627Z,12.73
2024-01-21T00:54:18.389Z,12.79
2024-01-21T00:56:45.009Z,12.82
2024-01-21T00:59:11.580Z,12.81
2024-01-21T01:01:39.603Z,12.27
2024-01-21T01:04:06.828Z,12.02
2024-01-21T01:06:36.189Z,11.86
2024-01-21T01:09:02.823Z,11.87
2024-01-21T01:11:29.570Z,11.54
2024-01-21T01:13:56.184Z,11.42
2024-01-21T01:16:23.652Z,11.32
2024-01-21T01:18:51.019Z,11.26
2024-01-21T01:21:17.974Z,10.75
2024-01-21T01:23:44.717Z,10.93
2024-01-21T01:26:11.361Z,10.75
2024-01-21T01:28:39.795Z,10.45
2024-01-21T01:31:08.105Z,10.78
2024-01-21T01:33:34.866Z,10.27
2024-01-21T01:36:01.487Z,9.87
2024-01-21T01:38:28.080Z,9.57
2024-01-21T01:40:54.728Z,9.60
2024-01-21T01:43:21.301Z,9.29
2024-01-21T01:45:48.034Z,9.34
2024-01-21T01:48:15.090Z,8.67
2024-01-21T01:50:41.878Z,8.86
2024-01-21T01:53:08.748Z,8.89
2024-01-21T01:55:35.775Z,8.27
2024-01-21T01:58:02.630Z,8.54
2024-01-21T02:00:29.580Z,8.25
2024-01-21T02:02:56.478Z,7.85
2024-01-21T02:05:23.276Z,7.74
2024-01-21T02:07:49.959Z,7.88
2024-01-21T02:10:16.654Z,7.46
2024-01-21T02:12:46.314Z,7.60
2024-01-21T02:15:15.805Z,7.86
2024-01-21T02:17:42.621Z,7.60
2024-01-21T02:20:10.747Z,7.68
2024-01-21T02:22:42.481Z,7.57
2024-01-21T02:25:10.230Z,7.05
2024-01-21T02:27:39.453Z,7.46
2024-01-21T02:30:06.795Z,7.45
2024-01-21T02:32:33.497Z,7.16
2024-01-21T02:35:00.076Z,7.20
2024-01-21T02:37:26.741Z,6.94
2024-01-21T02:39:53.414Z,7.48
2024-01-21T02:42:20.005Z,7.45
2024-01-21T02:44:46.591Z,7.13
2024-01-21T02:47:13.239Z,7.38
2024-01-21T02:49:39.977Z,7.64
2024-01-21T02:52:06.694Z,7.66
2024-01-21T02:54:33.327Z,7.47
2024-01-21T02:56:59.947Z,7.50
2024-01-21T02:59:26.694Z,7.38
2024-01-21T03:01:53.322Z,7.39
2024-01-21T03:04:19.879Z,7.36
2024-01-21T03:06:46.546Z,7.38
2024-01-21T03:09:13.158Z,7.16
2024-01-21T03:11:39.858Z,7.17
2024-01-21T03:14:07.340Z,7.05
2024-01-21T03:16:34.428Z,7.04
2024-01-21T03:19:01.075Z,6.92
2024-01-21T03:21:27.779Z,7.08
2024-01-21T03:23:54.378Z,7.22
2024-01-21T03:26:21.118Z,7.18
2024-01-21T03:28:47.689Z,6.97
2024-01-21T03:31:14.256Z,7.19
2024-01-21T03:33:41.095Z,7.50
2024-01-21T03:36:07.814Z,7.01
2024-01-21T03:38:34.433Z,6.91
2024-01-21T03:41:01.055Z,7.11
2024-01-21T03:43:27.712Z,7.33
2024-01-21T03:45:54.526Z,7.14
2024-01-21T03:48:21.253Z,7.12
2024-01-21T03:50:47.884Z,6.95
2024-01-21T03:53:14.452Z,6.97
2024-01-21T03:55:41.111Z,7.16
2024-01-21T03:58:07.694Z,7.15
2024-01-21T04:00:34.286Z,7.21
2024-01-21T04:03:00.944Z,6.95
2024-01-21T04:05:27.584Z,7.20
2024-01-21T04:07:54.167Z,7.38
2024-01-21T04:10:20.761Z,7.07
2024-01-21T04:12:47.384Z,6.99
2024-01-21T04:15:14.155Z,6.80
2024-01-21T04:17:41.020Z,6.98
2024-01-21T04:20:08.776Z,7.01
2024-01-21T04:22:35.807Z,6.68
2024-01-21T04:25:02.405Z,6.56
2024-01-21T04:27:29.043Z,6.64
2024-01-21T04:29:55.663Z,6.53
2024-01-21T04:32:22.296Z,6.52
2024-01-21T04:34:48.969Z,6.59
2024-01-21T04:37:15.664Z,6.40
2024-01-21T04:39:42.324Z,6.50
2024-01-21T04:42:08.913Z,6.32
2024-01-21T04:44:35.540Z,6.61
2024-01-21T04:47:02.130Z,6.70
2024-01-21T04:49:28.771Z,6.55
2024-01-21T04:51:55.884Z,6.50
2024-01-21T04:54:22.611Z,6.74
2024-01-21T04:56:49.234Z,6.97
2024-01-21T04:59:15.809Z,6.87
2024-01-21T05:01:42.482Z,6.99
2024-01-21T05:04:09.895Z,6.73
2024-01-21T05:06:36.633Z,6.93
2024-01-21T05:09:03.443Z,6.74
2024-01-21T05:11:31.066Z,6.88
2024-01-21T05:13:57.830Z,6.87
2024-01-21T05:16:24.473Z,6.91
2024-01-21T05:18:51.228Z,6.91
2024-01-21T05:21:22.071Z,7.06
2024-01-21T05:23:52.547Z,7.02
2024-01-21T05:26:19.222Z,7.24
2024-01-21T05:28:46.884Z,7.27
2024-01-21T05:31:13.717Z,7.13
2024-01-21T05:33:41.388Z,7.22
2024-01-21T05:36:09.586Z,7.42
2024-01-21T05:38:36.212Z,7.67
2024-01-21T05:41:02.792Z,7.41
2024-01-21T05:43:29.357Z,7.26
2024-01-21T05:45:56.022Z,7.25
2024-01-21T05:48:22.817Z,7.87
2024-01-21T05:50:49.498Z,7.57
2024-01-21T05:53:16.166Z,7.65
2024-01-21T05:55:42.799Z,7.90
2024-01-21T05:58:09.371Z,7.74
2024-01-21T06:00:36.001Z,7.70
2024-01-21T06:03:02.653Z,7.53
2024-01-21T06:05:29.404Z,7.63
2024-01-21T06:07:56.059Z,7.78
2024-01-21T06:10:22.661Z,7.84
2024-01-21T06:12:49.379Z,8.10
2024-01-21T06:15:16.118Z,8.22
2024-01-21T06:17:42.935Z,8.14
2024-01-21T06:20:10.261Z,8.25
2024-01-21T06:22:39.912Z,8.29
2024-01-21T06:25:06.732Z,8.49
2024-01-21T06:27:33.420Z,8.36
2024-01-21T06:30:19.437Z,8.86
2024-01-21T06:32:53.989Z,8.61
2024-01-21T06:35:28.220Z,8.69
2024-01-21T06:37:55.082Z,8.50
2024-01-21T06:40:21.707Z,8.61
2024-01-21T06:42:48.414Z,8.58
2024-01-21T06:45:15.726Z,8.26
2024-01-21T06:47:42.876Z,8.50
2024-01-21T06:50:12.943Z,8.88
2024-01-21T06:52:40.103Z,8.91
2024-01-21T06:55:07.595Z,8.85
2024-01-21T06:57:34.368Z,8.94
2024-01-21T07:00:01.253Z,8.93
2024-01-21T07:02:27.895Z,9.10
2024-01-21T07:04:54.595Z,8.82
2024-01-21T07:07:21.231Z,8.39
2024-01-21T07:09:47.996Z,9.19
2024-01-21T07:12:14.712Z,8.59
2024-01-21T07:14:41.341Z,9.03
2024-01-21T07:17:07.983Z,9.00
2024-01-21T07:19:34.752Z,9.12
2024-01-21T07:22:01.515Z,8.63
2024-01-21T07:24:28.267Z,8.99
2024-01-21T07:26:54.999Z,9.06
2024-01-21T07:29:21.636Z,8.84
2024-01-21T07:31:48.309Z,8.90
2024-01-21T07:34:15.062Z,8.68
2024-01-21T07:36:41.762Z,9.11
2024-01-21T07:39:08.440Z,9.08
2024-01-21T07:41:35.052Z,9.09
2024-01-21T07:44:01.687Z,9.05
2024-01-21T07:46:28.255Z,9.14
2024-01-21T07:48:54.962Z,8.88
2024-01-21T07:51:21.686Z,9.04
2024-01-21T07:53:48.401Z,9.10
2024-01-21T07:56:15.060Z,8.91
2024-01-21T07:58:42.171Z,8.99
2024-01-21T08:01:13.615Z,8.95
2024-01-21T08:03:41.385Z,9.13
2024-01-21T08:06:09.134Z,9.25
2024-01-21T08:08:36.215Z,9.26
2024-01-21T08:11:02.987Z,8.78
2024-01-21T08:13:29.620Z,8.76
2024-01-21T08:15:56.388Z,8.75
2024-01-21T08:18:23.225Z,8.87
2024-01-21T08:20:49.848Z,9.05
2024-01-21T08:23:16.591Z,9.12
2024-01-21T08:25:43.460Z,8.84
2024-01-21T08:28:10.162Z,8.87
2024-01-21T08:30:36.880Z,8.93
2024-01-21T08:33:03.851Z,9.08
2024-01-21T08:35:30.932Z,9.14
2024-01-21T08:37:57.562Z,9.04
2024-01-21T08:40:24.154Z,9.19
2024-01-21T08:42:50.818Z,9.06
2024-01-21T08:45:17.547Z,8.90
2024-01-21T08:47:44.676Z,8.66
2024-01-21T08:50:11.356Z,9.29
2024-01-21T08:52:37.956Z,8.55
2024-01-21T08:55:05.449Z,8.84
2024-01-21T08:57:32.330Z,9.18
2024-01-21T08:59:58.924Z,8.90
2024-01-21T09:02:25.535Z,8.84
2024-01-21T09:04:52.124Z,9.06
2024-01-21T09:07:18.907Z,9.11
2024-01-21T09:09:45.633Z,8.97
2024-01-21T09:12:15.551Z,9.01
2024-01-21T09:14:42.738Z,9.10
2024-01-21T09:17:09.328Z,9.44
2024-01-21T09:19:36.000Z,9.12
2024-01-21T09:22:02.945Z,8.75
2024-01-21T09:24:29.598Z,9.09
2024-01-21T09:26:56.595Z,8.72
2024-01-21T09:29:23.179Z,8.61
2024-01-21T09:31:57.296Z,9.21
2024-01-21T09:34:24.528Z,8.91
2024-01-21T09:36:54.875Z,8.94
2024-01-21T09:39:21.889Z,9.21
2024-01-21T09:41:50.804Z,9.15
2024-01-21T09:44:28.047Z,8.74
2024-01-21T09:46:56.853Z,8.82
2024-01-21T09:49:25.156Z,8.81
2024-01-21T09:51:53.296Z,9.03
2024-01-21T09:54:21.699Z,8.89
2024-01-21T09:56:48.795Z,8.93
2024-01-21T09:59:17.202Z,9.21
2024-01-21T10:01:44.475Z,9.11
2024-01-21T10:04:13.321Z,9.00
2024-01-21T10:06:40.274Z,9.35
2024-01-21T10:09:18.273Z,9.19
2024-01-21T10:11:55.522Z,9.62
2024-01-21T10:14:22.156Z,9.60
2024-01-21T10:16:50.571Z,9.61
2024-01-21T10:19:29.248Z,9.65
2024-01-21T10:22:16.347Z,9.38
2024-01-21T10:24:44.705Z,9.35
2024-01-21T10:27:12.475Z,9.33
2024-01-21T10:29:42.537Z,9.59
2024-01-21T10:32:11.079Z,9.31
2024-01-21T10:34:46.460Z,9.66
2024-01-21T10:37:17.085Z,9.87
2024-01-21T10:39:50.858Z,9.99
2024-01-21T10:42:18.388Z,9.98
2024-01-21T10:44:45.584Z,9.75
2024-01-21T10:47:13.977Z,9.33
2024-01-21T10:49:42.112Z,9.90
2024-01-21T10:52:12.649Z,9.94
2024-01-21T10:54:40.000Z,9.78
2024-01-21T10:57:07.560Z,9.94
2024-01-21T10:59:37.340Z,9.60
2024-01-21T11:02:04.059Z,9.83
2024-01-21T11:04:30.774Z,9.90
2024-01-21T11:06:57.599Z,9.53
2024-01-21T11:09:27.265Z,9.59
2024-01-21T11:11:56.324Z,9.61
2024-01-21T11:14:29.340Z,9.75
2024-01-21T11:16:57.996Z,9.44
2024-01-21T11:19:25.421Z,9.95
2024-01-21T11:21:56.883Z,9.95
2024-01-21T11:24:31.061Z,9.67
2024-01-21T11:26:59.462Z,9.76
2024-01-21T11:29:33.766Z,10.13
2024-01-21T11:32:03.044Z,10.14
2024-01-21T11:34:39.753Z,9.82
2024-01-21T11:37:08.953Z,9.62
2024-01-21T11:39:36.277Z,9.82
2024-01-21T11:42:04.123Z,9.85
2024-01-21T11:44:32.261Z,10.05
2024-01-21T11:47:02.781Z,10.04
2024-01-21T11:49:33.563Z,9.59
2024-01-21T11:52:01.914Z,9.66
2024-01-21T11:54:29.370Z,9.73
2024-01-21T11:56:56.655Z,9.64
2024-01-21T11:59:25.768Z,9.53
2024-01-21T12:02:00.639Z,9.50
2024-01-21T12:04:28.403Z,9.71
2024-01-21T12:06:56.538Z,9.82
2024-01-21T12:09:24.365Z,9.90
2024-01-21T12:11:51.691Z,10.03
2024-01-21T12:14:18.825Z,9.88
2024-01-21T12:16:51.050Z,10.30
2024-01-21T12:19:19.553Z,10.05
2024-01-21T12:21:46.727Z,10.45
2024-01-21T12:24:13.477Z,10.03
2024-01-21T12:26:40.098Z,9.59
2024-01-21T12:29:11.091Z,10.41
2024-01-21T12:31:39.742Z,9.85
2024-01-21T12:34:08.823Z,10.25
2024-01-21T12:36:37.603Z,10.12
2024-01-21T12:39:07.689Z,10.08
2024-01-21T12:41:35.366Z,10.20
2024-01-21T12:44:02.197Z,10.36
2024-01-21T12:46:29.124Z,9.61
2024-01-21T12:48:55.799Z,9.91
2024-01-21T12:51:24.736Z,10.82
2024-01-21T12:53:53.167Z,10.47
2024-01-21T12:56:21.236Z,10.30
2024-01-21T12:58:48.614Z,10.01
2024-01-21T13:01:17.034Z,10.07
2024-01-21T13:03:44.503Z,9.98
2024-01-21T13:06:11.614Z,9.97
2024-01-21T13:08:41.434Z,9.99
2024-01-21T13:11:08.462Z,9.97
2024-01-21T13:13:35.114Z,10.26
2024-01-21T13:16:02.918Z,10.42
2024-01-21T13:18:33.494Z,10.43
2024-01-21T13:21:00.209Z,10.30
2024-01-21T13:23:26.897Z,10.39
2024-01-21T13:25:53.928Z,10.58
2024-01-21T13:28:23.327Z,10.31
2024-01-21T13:30:54.632Z,10.30
2024-01-21T13:33:23.870Z,10.47
2024-01-21T13:35:51.920Z,10.26
2024-01-21T13:38:18.544Z,10.21
2024-01-21T13:40:45.242Z,10.41
2024-01-21T13:43:11.921Z,10.60
2024-01-21T13:45:40.317Z,10.87
2024-01-21T13:48:08.070Z,10.71
2024-01-21T13:50:35.118Z,10.74
2024-01-21T13:53:02.778Z,10.84
2024-01-21T13:55:29.391Z,10.80
2024-01-21T13:57:56.263Z,10.96
2024-01-21T14:00:26.389Z,10.82
2024-01-21T14:02:56.171Z,11.12
2024-01-21T14:05:23.966Z,10.59
2024-01-21T14:07:51.407Z,10.74
2024-01-21T14:10:18.904Z,10.74
2024-01-21T14:12:46.273Z,10.32
2024-01-21T14:15:13.069Z,10.76
2024-01-21T14:17:39.863Z,10.95
2024-01-21T14:20:10.126Z,10.47
2024-01-21T14:22:40.139Z,10.60
2024-01-21T14:25:18.344Z,12.07
2024-01-21T14:27:44.984Z,11.87
2024-01-21T14:30:18.340Z,11.10
2024-01-21T14:32:45.328Z,11.68
2024-01-21T14:35:12.259Z,10.72
2024-01-21T14:37:38.984Z,10.47
2024-01-21T14:40:06.111Z,10.79
2024-01-21T14:42:33.668Z,10.45
2024-01-21T14:45:00.314Z,10.44
2024-01-21T14:47:26.910Z,10.52
2024-01-21T14:49:53.570Z,10.13
2024-01-21T14:52:20.241Z,10.78
2024-01-21T14:54:47.171Z,10.92
2024-01-21T14:57:13.803Z,10.60
2024-01-21T14:59:40.573Z,11.34
2024-01-21T15:02:07.343Z,10.82
2024-01-21T15:04:34.187Z,11.28
2024-01-21T15:07:01.162Z,10.85
2024-01-21T15:09:28.439Z,11.27
2024-01-21T15:11:55.049Z,10.61
2024-01-21T15:14:45.826Z,10.93
2024-01-21T15:17:14.558Z,10.89
2024-01-21T15:19:44.860Z,10.98
2024-01-21T15:22:12.409Z,11.14
2024-01-21T15:24:40.032Z,11.15
2024-01-21T15:27:06.830Z,11.02
2024-01-21T15:29:33.603Z,10.77
2024-01-21T15:32:00.447Z,10.79
2024-01-21T15:34:27.136Z,10.75
2024-01-21T15:36:53.823Z,11.00
2024-01-21T15:39:20.540Z,10.64
2024-01-21T15:41:47.757Z,10.86
2024-01-21T15:44:17.585Z,12.16
2024-01-21T15:46:47.371Z,11.45
2024-01-21T15:49:14.265Z,11.08
2024-01-21T15:51:42.068Z,11.23
2024-01-21T15:54:10.409Z,11.27
2024-01-21T15:56:37.610Z,10.98
2024-01-21T15:59:04.820Z,11.51
2024-01-21T16:01:31.758Z,11.51
2024-01-21T16:03:59.340Z,10.88
2024-01-21T16:06:26.305Z,11.41
2024-01-21T16:08:53.331Z,11.77
2024-01-21T16:11:20.107Z,11.64
2024-01-21T16:13:46.935Z,11.91
2024-01-21T16:16:13.727Z,11.86
2024-01-21T16:18:40.556Z,11.75
2024-01-21T16:21:09.352Z,12.19
2024-01-21T16:23:36.222Z,11.83
2024-01-21T16:26:02.856Z,11.48
2024-01-21T16:28:29.487Z,11.06
2024-01-21T16:30:56.188Z,11.33
2024-01-21T16:33:24.610Z,11.83
2024-01-21T16:35:52.418Z,11.91
2024-01-21T16:38:19.139Z,11.46
2024-01-21T16:40:45.981Z,11.63
2024-01-21T16:43:12.706Z,11.15
2024-01-21T16:45:39.590Z,11.13
2024-01-21T16:48:07.069Z,11.52
2024-01-21T16:50:33.827Z,11.43
2024-01-21T16:53:09.472Z,11.29
2024-01-21T16:55:36.118Z,11.64
2024-01-21T16:58:02.830Z,11.40
2024-01-21T17:00:36.304Z,11.32
2024-01-21T17:03:03.488Z,11.22
2024-01-21T17:05:30.215Z,11.39
2024-01-21T17:07:56.892Z,11.57
2024-01-21T17:10:54.718Z,11.26
2024-01-21T17:13:21.359Z,11.88
2024-01-21T17:15:47.984Z,11.66
2024-01-21T17:18:22.331Z,11.65
2024-01-21T17:20:49.897Z,11.77
2024-01-21T17:23:16.539Z,11.43
2024-01-21T17:25:43.283Z,11.21
2024-01-21T17:28:11.179Z,11.13
2024-01-21T17:30:37.776Z,11.97
2024-01-21T17:33:04.805Z,11.56
2024-01-21T17:35:31.510Z,12.22
2024-01-21T17:37:58.453Z,11.75
2024-01-21T17:40:25.434Z,11.71
2024-01-21T17:42:52.303Z,11.44
2024-01-21T17:45:19.013Z,11.30
2024-01-21T17:47:46.662Z,11.22
2024-01-21T17:50:13.742Z,12.08
2024-01-21T17:52:41.951Z,11.63
2024-01-21T17:55:08.916Z,11.16
2024-01-21T17:57:36.484Z,11.87
2024-01-21T18:00:05.884Z,11.42
2024-01-21T18:02:32.919Z,11.24
2024-01-21T18:04:59.799Z,11.53
2024-01-21T18:07:26.493Z,11.61
2024-01-21T18:09:53.185Z,11.58
2024-01-21T18:12:20.703Z,11.41
2024-01-21T18:14:47.316Z,11.86
2024-01-21T18:17:14.037Z,11.54
2024-01-21T18:19:42.410Z,11.07
2024-01-21T18:22:13.076Z,11.40
2024-01-21T18:24:41.115Z,11.20
2024-01-21T18:27:08.153Z,11.53
2024-01-21T18:29:36.280Z,11.47
2024-01-21T18:32:07.151Z,11.22
2024-01-21T18:34:34.966Z,11.24
2024-01-21T18:37:03.834Z,11.29
2024-01-21T18:39:31.296Z,11.59
2024-01-21T18:41:58.325Z,10.97
2024-01-21T18:44:25.164Z,11.22
2024-01-21T18:46:53.044Z,11.35
2024-01-21T18:49:20.905Z,11.28
2024-01-21T18:51:49.178Z,11.22
2024-01-21T18:54:16.473Z,10.91
2024-01-21T18:56:43.198Z,11.71
2024-01-21T18:59:10.088Z,11.33
2024-01-21T19:01:37.022Z,11.35
2024-01-21T19:04:03.667Z,11.33
2024-01-21T19:06:30.409Z,11.12
2024-01-21T19:08:57.065Z,11.16
2024-01-21T19:11:23.907Z,10.86
2024-01-21T19:13:52.795Z,11.18
2024-01-21T19:16:19.558Z,10.77
2024-01-21T19:18:47.211Z,10.84
2024-01-21T19:21:15.857Z,11.18
2024-01-21T19:23:42.540Z,10.81
2024-01-21T19:26:13.694Z,10.20
2024-01-21T19:28:40.563Z,10.47
2024-01-21T19:31:07.203Z,10.15
2024-01-21T19:33:33.831Z,10.67
2024-01-21T19:36:00.643Z,10.95
2024-01-21T19:38:27.215Z,10.45
2024-01-21T19:40:53.805Z,10.39
2024-01-21T19:43:23.237Z,9.57
2024-01-21T19:45:49.848Z,9.81
2024-01-21T19:48:16.519Z,9.96
2024-01-21T19:50:43.152Z,9.97
2024-01-21T19:53:09.784Z,10.00
2024-01-21T19:55:36.977Z,9.76
2024-01-21T19:58:05.953Z,10.20
2024-01-21T20:00:32.624Z,9.73
2024-01-21T20:02:59.347Z,10.05
2024-01-21T20:05:26.011Z,10.04
2024-01-21T20:07:52.684Z,10.10
2024-01-21T20:10:20.901Z,9.94
2024-01-21T20:12:47.493Z,9.48
2024-01-21T20:15:14.228Z,9.65
2024-01-21T20:17:40.963Z,9.70
2024-01-21T20:20:07.996Z,9.48
2024-01-21T20:22:34.621Z,9.55
2024-01-21T20:25:01.467Z,9.44
2024-01-21T20:27:28.064Z,9.65
2024-01-21T20:29:54.882Z,9.21
2024-01-21T20:32:21.540Z,9.69
2024-01-21T20:34:49.149Z,9.41
2024-01-21T20:37:15.705Z,9.33
2024-01-21T20:39:42.316Z,9.20
2024-01-21T20:42:14.669Z,9.05
2024-01-21T20:44:41.422Z,8.85
2024-01-21T20:47:08.068Z,9.25
2024-01-21T20:49:36.188Z,9.03
2024-01-21T20:52:02.864Z,8.58
2024-01-21T20:54:32.755Z,8.81
2024-01-21T20:56:59.457Z,8.63
2024-01-21T20:59:26.048Z,8.28
2024-01-21T21:01:52.670Z,8.02
2024-01-21T21:04:19.954Z,7.85
2024-01-21T21:06:46.697Z,7.95
2024-01-21T21:09:13.954Z,8.21
2024-01-21T21:11:40.673Z,7.82
2024-01-21T21:14:08.013Z,7.98
2024-01-21T21:16:34.582Z,8.35
2024-01-21T21:19:02.698Z,7.68
2024-01-21T21:21:29.410Z,8.31
2024-01-21T21:23:56.009Z,7.87
2024-01-21T21:26:23.144Z,7.69
2024-01-21T21:28:49.732Z,7.88
2024-01-21T21:31:16.377Z,7.75
2024-01-21T21:33:44.852Z,7.42
2024-01-21T21:36:12.009Z,7.88
2024-01-21T21:38:38.741Z,7.65
2024-01-21T21:41:05.470Z,7.33
2024-01-21T21:43:32.117Z,7.44
2024-01-21T21:45:58.728Z,7.72
2024-01-21T21:48:25.418Z,7.95
2024-01-21T21:50:52.444Z,7.50
2024-01-21T21:53:19.320Z,7.41
2024-01-21T21:55:46.810Z,7.57
2024-01-21T21:58:13.948Z,7.77
2024-01-21T22:00:41.780Z,7.80
2024-01-21T22:03:09.339Z,7.43
2024-01-21T22:05:36.223Z,7.55
2024-01-21T22:08:02.835Z,7.65
2024-01-21T22:10:29.650Z,7.10
2024-01-21T22:12:56.409Z,7.29
2024-01-21T22:15:23.029Z,7.11
2024-01-21T22:17:50.078Z,7.31
2024-01-21T22:20:17.481Z,6.95
2024-01-21T22:22:44.123Z,7.12
2024-01-21T22:25:11.236Z,7.04
2024-01-21T22:27:37.839Z,7.17
2024-01-21T22:30:04.945Z,6.90
2024-01-21T22:32:31.672Z,6.92
2024-01-21T22:34:58.386Z,7.00
2024-01-21T22:37:25.046Z,6.84
2024-01-21T22:39:51.663Z,6.73
2024-01-21T22:42:18.237Z,6.71
2024-01-21T22:44:46.098Z,6.91
2024-01-21T22:47:12.963Z,6.79
2024-01-21T22:49:39.845Z,6.86
2024-01-21T22:52:07.217Z,6.66
2024-01-21T22:54:33.910Z,6.54
2024-01-21T22:57:00.519Z,6.54
2024-01-21T22:59:27.133Z,6.47
2024-01-21T23:01:53.782Z,6.37
2024-01-21T23:04:22.722Z,6.38
2024-01-21T23:06:49.284Z,6.64
2024-01-21T23:09:16.112Z,6.48
2024-01-21T23:11:42.742Z,6.45
2024-01-21T23:14:09.332Z,6.36
2024-01-21T23:16:36.137Z,6.48
2024-01-21T23:19:02.878Z,6.38
2024-01-21T23:21:29.556Z,5.98
2024-01-21T23:23:56.188Z,6.44
2024-01-21T23:26:22.845Z,6.29
2024-01-21T23:28:49.417Z,6.13
2024-01-21T23:31:16.100Z,6.20
2024-01-21T23:33:42.886Z,5.89
2024-01-21T23:36:12.592Z,6.20
2024-01-21T23:38:39.250Z,6.20
2024-01-21T23:41:07.422Z,5.68
2024-01-21T23:43:34.171Z,6.04
2024-01-21T23:46:03.531Z,5.70
2024-01-21T23:48:31.413Z,5.68
2024-01-21T23:50:59.144Z,5.81
2024-01-21T23:53:25.843Z,5.61
2024-01-21T23:55:52.456Z,5.73
2024-01-21T23:58:19.104Z,5.19
